sensor_id;sensor_type;location;lat;lon;timestamp;pressure;altitude;pressure_sealevel;temperature;humidity
66627;BME280;53498;50.422;14.912;2023-11-19T00:00:25;99234.72;;;3.50;100.00
66627;BME280;53498;50.422;14.912;2023-11-19T00:03:11;99223.84;;;3.32;100.00
66627;BME280;53498;50.422;14.912;2023-11-19T00:05:39;99216.19;;;3.33;100.00
66627;BME280;53498;50.422;14.912;2023-11-19T00:08:04;99203.19;;;3.29;100.00
66627;BME280;53498;50.422;14.912;2023-11-19T00:10:31;99195.53;;;3.30;100.00
66627;BME280;53498;50.422;14.912;2023-11-19T00:12:57;99201.16;;;3.18;100.00
66627;BME280;53498;50.422;14.912;2023-11-19T00:15:23;99185.44;;;3.09;100.00
66627;BME280;53498;50.422;14.912;2023-11-19T00:17:49;99176.03;;;3.10;100.00
66627;BME280;53498;50.422;14.912;2023-11-19T00:20:19;99168.88;;;2.99;100.00
66627;BME280;53498;50.422;14.912;2023-11-19T00:22:44;99161.16;;;2.99;100.00
66627;BME280;53498;50.422;14.912;2023-11-19T00:25:13;99149.94;;;2.97;100.00
66627;BME280;53498;50.422;14.912;2023-11-19T00:27:39;99152.50;;;2.97;100.00
66627;BME280;53498;50.422;14.912;2023-11-19T00:30:05;99146.97;;;3.11;100.00
66627;BME280;53498;50.422;14.912;2023-11-19T00:32:32;99139.06;;;3.05;100.00
66627;BME280;53498;50.422;14.912;2023-11-19T00:34:58;99123.94;;;3.15;100.00
66627;BME280;53498;50.422;14.912;2023-11-19T00:37:26;99134.81;;;3.07;100.00
66627;BME280;53498;50.422;14.912;2023-11-19T00:39:53;99116.97;;;3.11;100.00
66627;BME280;53498;50.422;14.912;2023-11-19T00:42:19;99124.00;;;3.17;100.00
66627;BME280;53498;50.422;14.912;2023-11-19T00:44:44;99136.59;;;3.08;100.00
66627;BME280;53498;50.422;14.912;2023-11-19T00:47:11;99115.19;;;3.09;100.00
66627;BME280;53498;50.422;14.912;2023-11-19T00:49:37;99110.03;;;3.09;100.00
66627;BME280;53498;50.422;14.912;2023-11-19T00:52:03;99105.31;;;2.94;100.00
66627;BME280;53498;50.422;14.912;2023-11-19T00:54:28;99101.69;;;2.87;100.00
66627;BME280;53498;50.422;14.912;2023-11-19T00:56:54;99112.81;;;2.88;100.00
66627;BME280;53498;50.422;14.912;2023-11-19T00:59:20;99091.78;;;2.72;100.00
66627;BME280;53498;50.422;14.912;2023-11-19T01:01:46;99084.03;;;2.71;100.00
66627;BME280;53498;50.422;14.912;2023-11-19T01:04:14;99086.94;;;2.82;100.00
66627;BME280;53498;50.422;14.912;2023-11-19T01:06:40;99085.16;;;2.79;100.00
66627;BME280;53498;50.422;14.912;2023-11-19T01:09:06;99098.41;;;2.64;100.00
66627;BME280;53498;50.422;14.912;2023-11-19T01:11:31;99088.69;;;2.55;100.00
66627;BME280;53498;50.422;14.912;2023-11-19T01:13:57;99082.06;;;2.62;100.00
66627;BME280;53498;50.422;14.912;2023-11-19T01:16:22;99076.63;;;2.53;100.00
66627;BME280;53498;50.422;14.912;2023-11-19T01:18:49;99065.56;;;2.54;100.00
66627;BME280;53498;50.422;14.912;2023-11-19T01:21:14;99065.59;;;2.55;100.00
66627;BME280;53498;50.422;14.912;2023-11-19T01:23:41;99059.31;;;2.47;100.00
66627;BME280;53498;50.422;14.912;2023-11-19T01:26:10;99056.94;;;2.81;100.00
66627;BME280;53498;50.422;14.912;2023-11-19T01:28:36;99048.63;;;2.61;100.00
66627;BME280;53498;50.422;14.912;2023-11-19T01:31:02;99030.84;;;2.67;100.00
66627;BME280;53498;50.422;14.912;2023-11-19T01:33:29;99031.44;;;2.58;100.00
66627;BME280;53498;50.422;14.912;2023-11-19T01:35:55;99036.28;;;2.76;100.00
66627;BME280;53498;50.422;14.912;2023-11-19T01:38:21;99020.50;;;2.65;100.00
66627;BME280;53498;50.422;14.912;2023-11-19T01:40:47;99022.13;;;2.90;100.00
66627;BME280;53498;50.422;14.912;2023-11-19T01:43:31;99013.06;;;2.73;100.00
66627;BME280;53498;50.422;14.912;2023-11-19T01:45:56;99024.00;;;2.67;100.00
66627;BME280;53498;50.422;14.912;2023-11-19T01:48:22;99023.56;;;2.53;100.00
66627;BME280;53498;50.422;14.912;2023-11-19T01:50:47;99019.63;;;2.36;100.00
66627;BME280;53498;50.422;14.912;2023-11-19T01:53:13;99005.22;;;2.41;100.00
66627;BME280;53498;50.422;14.912;2023-11-19T01:55:41;98996.31;;;2.30;100.00
66627;BME280;53498;50.422;14.912;2023-11-19T01:58:07;98984.34;;;2.30;100.00
66627;BME280;53498;50.422;14.912;2023-11-19T02:00:33;98966.13;;;2.50;100.00
66627;BME280;53498;50.422;14.912;2023-11-19T02:02:58;98965.44;;;2.55;100.00
66627;BME280;53498;50.422;14.912;2023-11-19T02:05:24;98967.97;;;2.54;100.00
66627;BME280;53498;50.422;14.912;2023-11-19T02:07:50;98956.03;;;2.56;100.00
66627;BME280;53498;50.422;14.912;2023-11-19T02:10:16;98953.63;;;2.61;100.00
66627;BME280;53498;50.422;14.912;2023-11-19T02:12:45;98951.19;;;2.65;100.00
66627;BME280;53498;50.422;14.912;2023-11-19T02:15:11;98950.81;;;2.53;100.00
66627;BME280;53498;50.422;14.912;2023-11-19T02:17:37;98963.25;;;2.39;100.00
66627;BME280;53498;50.422;14.912;2023-11-19T02:20:06;98960.22;;;2.52;100.00
66627;BME280;53498;50.422;14.912;2023-11-19T02:22:37;98945.47;;;2.45;100.00
66627;BME280;53498;50.422;14.912;2023-11-19T02:25:17;98942.59;;;2.65;100.00
66627;BME280;53498;50.422;14.912;2023-11-19T02:28:00;98944.78;;;2.81;100.00
66627;BME280;53498;50.422;14.912;2023-11-19T02:30:26;98938.31;;;2.64;100.00
66627;BME280;53498;50.422;14.912;2023-11-19T02:32:53;98931.88;;;2.49;100.00
66627;BME280;53498;50.422;14.912;2023-11-19T02:35:19;98937.94;;;2.51;100.00
66627;BME280;53498;50.422;14.912;2023-11-19T02:37:47;98934.63;;;2.55;100.00
66627;BME280;53498;50.422;14.912;2023-11-19T02:40:13;98934.53;;;2.52;100.00
66627;BME280;53498;50.422;14.912;2023-11-19T02:42:39;98923.34;;;2.50;100.00
66627;BME280;53498;50.422;14.912;2023-11-19T02:45:04;98909.00;;;2.57;100.00
66627;BME280;53498;50.422;14.912;2023-11-19T02:47:33;98910.50;;;2.50;100.00
66627;BME280;53498;50.422;14.912;2023-11-19T02:49:59;98907.41;;;2.61;100.00
66627;BME280;53498;50.422;14.912;2023-11-19T02:52:25;98895.19;;;2.53;100.00
66627;BME280;53498;50.422;14.912;2023-11-19T02:54:51;98908.75;;;2.48;100.00
66627;BME280;53498;50.422;14.912;2023-11-19T02:57:16;98907.22;;;2.54;100.00
66627;BME280;53498;50.422;14.912;2023-11-19T02:59:44;98898.28;;;2.42;100.00
66627;BME280;53498;50.422;14.912;2023-11-19T03:02:10;98893.00;;;2.37;100.00
66627;BME280;53498;50.422;14.912;2023-11-19T03:04:40;98884.41;;;2.35;100.00
66627;BME280;53498;50.422;14.912;2023-11-19T03:07:06;98873.66;;;2.48;100.00
66627;BME280;53498;50.422;14.912;2023-11-19T03:09:32;98862.28;;;2.40;100.00
66627;BME280;53498;50.422;14.912;2023-11-19T03:12:00;98859.88;;;2.45;100.00
66627;BME280;53498;50.422;14.912;2023-11-19T03:14:25;98857.16;;;2.40;100.00
66627;BME280;53498;50.422;14.912;2023-11-19T03:16:51;98862.94;;;2.63;100.00
66627;BME280;53498;50.422;14.912;2023-11-19T03:19:17;98857.41;;;2.49;100.00
66627;BME280;53498;50.422;14.912;2023-11-19T03:21:43;98848.94;;;2.52;100.00
66627;BME280;53498;50.422;14.912;2023-11-19T03:24:10;98856.66;;;2.53;100.00
66627;BME280;53498;50.422;14.912;2023-11-19T03:26:36;98856.56;;;2.49;100.00
66627;BME280;53498;50.422;14.912;2023-11-19T03:29:02;98854.84;;;2.49;100.00
66627;BME280;53498;50.422;14.912;2023-11-19T03:31:28;98851.41;;;2.49;100.00
66627;BME280;53498;50.422;14.912;2023-11-19T03:33:54;98835.94;;;2.46;100.00
66627;BME280;53498;50.422;14.912;2023-11-19T03:36:19;98824.03;;;2.49;100.00
66627;BME280;53498;50.422;14.912;2023-11-19T03:38:45;98817.13;;;2.47;100.00
66627;BME280;53498;50.422;14.912;2023-11-19T03:41:14;98802.66;;;2.49;100.00
66627;BME280;53498;50.422;14.912;2023-11-19T03:43:40;98799.56;;;2.61;100.00
66627;BME280;53498;50.422;14.912;2023-11-19T03:46:21;98788.78;;;2.42;100.00
66627;BME280;53498;50.422;14.912;2023-11-19T03:48:48;98798.19;;;2.43;100.00
66627;BME280;53498;50.422;14.912;2023-11-19T03:51:14;98797.44;;;2.47;100.00
66627;BME280;53498;50.422;14.912;2023-11-19T03:53:49;98797.63;;;2.53;100.00
66627;BME280;53498;50.422;14.912;2023-11-19T03:56:15;98792.72;;;2.63;100.00
66627;BME280;53498;50.422;14.912;2023-11-19T03:58:40;98794.06;;;2.48;100.00
66627;BME280;53498;50.422;14.912;2023-11-19T04:01:11;98794.97;;;2.50;100.00
66627;BME280;53498;50.422;14.912;2023-11-19T04:03:38;98801.19;;;2.59;100.00
66627;BME280;53498;50.422;14.912;2023-11-19T04:06:04;98796.06;;;2.59;100.00
66627;BME280;53498;50.422;14.912;2023-11-19T04:08:30;98775.16;;;2.45;100.00
66627;BME280;53498;50.422;14.912;2023-11-19T04:10:55;98763.94;;;2.73;100.00
66627;BME280;53498;50.422;14.912;2023-11-19T04:13:21;98763.44;;;2.54;100.00
66627;BME280;53498;50.422;14.912;2023-11-19T04:15:50;98745.72;;;2.65;100.00
66627;BME280;53498;50.422;14.912;2023-11-19T04:18:15;98747.44;;;2.33;100.00
66627;BME280;53498;50.422;14.912;2023-11-19T04:20:41;98740.16;;;2.48;100.00
66627;BME280;53498;50.422;14.912;2023-11-19T04:23:08;98721.34;;;2.49;100.00
66627;BME280;53498;50.422;14.912;2023-11-19T04:25:35;98724.53;;;2.41;100.00
66627;BME280;53498;50.422;14.912;2023-11-19T04:28:01;98720.84;;;2.31;100.00
66627;BME280;53498;50.422;14.912;2023-11-19T04:30:28;98729.28;;;2.59;100.00
66627;BME280;53498;50.422;14.912;2023-11-19T04:32:53;98720.50;;;2.50;100.00
66627;BME280;53498;50.422;14.912;2023-11-19T04:35:19;98708.09;;;2.34;100.00
66627;BME280;53498;50.422;14.912;2023-11-19T04:37:44;98686.91;;;2.41;100.00
66627;BME280;53498;50.422;14.912;2023-11-19T04:40:11;98685.31;;;2.45;100.00
66627;BME280;53498;50.422;14.912;2023-11-19T04:42:37;98690.53;;;2.49;100.00
66627;BME280;53498;50.422;14.912;2023-11-19T04:45:06;98698.16;;;2.46;100.00
66627;BME280;53498;50.422;14.912;2023-11-19T04:47:36;98700.22;;;2.60;100.00
66627;BME280;53498;50.422;14.912;2023-11-19T04:50:02;98692.25;;;2.49;100.00
66627;BME280;53498;50.422;14.912;2023-11-19T04:52:28;98689.53;;;2.44;100.00
66627;BME280;53498;50.422;14.912;2023-11-19T04:54:54;98687.97;;;2.49;100.00
66627;BME280;53498;50.422;14.912;2023-11-19T04:57:20;98681.44;;;2.61;100.00
66627;BME280;53498;50.422;14.912;2023-11-19T04:59:45;98667.75;;;2.62;100.00
66627;BME280;53498;50.422;14.912;2023-11-19T05:02:11;98669.41;;;2.60;100.00
66627;BME280;53498;50.422;14.912;2023-11-19T05:04:36;98672.66;;;2.52;100.00
66627;BME280;53498;50.422;14.912;2023-11-19T05:07:05;98663.69;;;2.70;100.00
66627;BME280;53498;50.422;14.912;2023-11-19T05:09:31;98659.50;;;2.75;100.00
66627;BME280;53498;50.422;14.912;2023-11-19T05:11:57;98652.72;;;2.77;100.00
66627;BME280;53498;50.422;14.912;2023-11-19T05:14:22;98659.34;;;2.67;100.00
66627;BME280;53498;50.422;14.912;2023-11-19T05:16:50;98652.16;;;2.89;100.00
66627;BME280;53498;50.422;14.912;2023-11-19T05:19:15;98648.50;;;2.79;100.00
66627;BME280;53498;50.422;14.912;2023-11-19T05:21:44;98641.28;;;3.00;100.00
66627;BME280;53498;50.422;14.912;2023-11-19T05:24:10;98644.41;;;2.87;100.00
66627;BME280;53498;50.422;14.912;2023-11-19T05:26:38;98644.25;;;2.81;100.00
66627;BME280;53498;50.422;14.912;2023-11-19T05:29:03;98627.09;;;2.80;100.00
66627;BME280;53498;50.422;14.912;2023-11-19T05:31:30;98617.59;;;2.76;100.00
66627;BME280;53498;50.422;14.912;2023-11-19T05:34:01;98611.47;;;2.71;100.00
66627;BME280;53498;50.422;14.912;2023-11-19T05:36:27;98611.06;;;2.90;100.00
66627;BME280;53498;50.422;14.912;2023-11-19T05:38:54;98609.91;;;2.76;100.00
66627;BME280;53498;50.422;14.912;2023-11-19T05:41:20;98607.22;;;2.71;100.00
66627;BME280;53498;50.422;14.912;2023-11-19T05:43:45;98610.44;;;3.00;100.00
66627;BME280;53498;50.422;14.912;2023-11-19T05:46:11;98604.91;;;2.82;100.00
66627;BME280;53498;50.422;14.912;2023-11-19T05:48:38;98594.44;;;2.74;100.00
66627;BME280;53498;50.422;14.912;2023-11-19T05:51:04;98587.03;;;2.88;100.00
66627;BME280;53498;50.422;14.912;2023-11-19T05:53:31;98586.00;;;2.80;100.00
66627;BME280;53498;50.422;14.912;2023-11-19T05:55:57;98585.06;;;2.76;100.00
66627;BME280;53498;50.422;14.912;2023-11-19T05:58:26;98583.66;;;2.89;100.00
66627;BME280;53498;50.422;14.912;2023-11-19T06:00:57;98586.72;;;2.74;100.00
66627;BME280;53498;50.422;14.912;2023-11-19T06:03:23;98585.66;;;3.03;100.00
66627;BME280;53498;50.422;14.912;2023-11-19T06:05:49;98579.41;;;2.91;100.00
66627;BME280;53498;50.422;14.912;2023-11-19T06:08:15;98570.94;;;2.95;100.00
66627;BME280;53498;50.422;14.912;2023-11-19T06:10:42;98566.41;;;2.84;100.00
66627;BME280;53498;50.422;14.912;2023-11-19T06:13:09;98561.16;;;2.79;100.00
66627;BME280;53498;50.422;14.912;2023-11-19T06:15:36;98557.78;;;2.82;100.00
66627;BME280;53498;50.422;14.912;2023-11-19T06:18:02;98560.25;;;2.77;100.00
66627;BME280;53498;50.422;14.912;2023-11-19T06:20:29;98556.19;;;2.87;100.00
66627;BME280;53498;50.422;14.912;2023-11-19T06:22:56;98557.84;;;2.85;100.00
66627;BME280;53498;50.422;14.912;2023-11-19T06:25:22;98562.78;;;2.75;100.00
66627;BME280;53498;50.422;14.912;2023-11-19T06:27:52;98571.41;;;2.77;100.00
66627;BME280;53498;50.422;14.912;2023-11-19T06:30:18;98570.66;;;2.83;100.00
66627;BME280;53498;50.422;14.912;2023-11-19T06:32:44;98568.66;;;2.70;100.00
66627;BME280;53498;50.422;14.912;2023-11-19T06:35:09;98560.81;;;3.01;100.00
66627;BME280;53498;50.422;14.912;2023-11-19T06:37:35;98552.81;;;2.89;100.00
66627;BME280;53498;50.422;14.912;2023-11-19T06:40:05;98553.53;;;2.82;100.00
66627;BME280;53498;50.422;14.912;2023-11-19T06:42:32;98550.78;;;2.74;100.00
66627;BME280;53498;50.422;14.912;2023-11-19T06:44:58;98553.84;;;2.97;100.00
66627;BME280;53498;50.422;14.912;2023-11-19T06:47:27;98558.75;;;2.85;100.00
66627;BME280;53498;50.422;14.912;2023-11-19T06:49:53;98569.88;;;2.86;100.00
66627;BME280;53498;50.422;14.912;2023-11-19T06:52:19;98572.59;;;2.93;100.00
66627;BME280;53498;50.422;14.912;2023-11-19T06:54:45;98559.69;;;2.90;100.00
66627;BME280;53498;50.422;14.912;2023-11-19T06:57:13;98558.75;;;2.87;100.00
66627;BME280;53498;50.422;14.912;2023-11-19T06:59:39;98557.63;;;2.74;100.00
66627;BME280;53498;50.422;14.912;2023-11-19T07:02:06;98561.47;;;2.94;100.00
66627;BME280;53498;50.422;14.912;2023-11-19T07:04:31;98550.66;;;3.08;100.00
66627;BME280;53498;50.422;14.912;2023-11-19T07:06:59;98539.47;;;3.04;100.00
66627;BME280;53498;50.422;14.912;2023-11-19T07:09:25;98536.50;;;2.87;100.00
66627;BME280;53498;50.422;14.912;2023-11-19T07:11:51;98534.91;;;2.92;100.00
66627;BME280;53498;50.422;14.912;2023-11-19T07:14:17;98541.72;;;2.90;100.00
66627;BME280;53498;50.422;14.912;2023-11-19T07:16:43;98540.75;;;2.85;100.00
66627;BME280;53498;50.422;14.912;2023-11-19T07:19:09;98531.75;;;3.06;100.00
66627;BME280;53498;50.422;14.912;2023-11-19T07:21:35;98532.09;;;2.82;100.00
66627;BME280;53498;50.422;14.912;2023-11-19T07:24:05;98522.34;;;3.06;100.00
66627;BME280;53498;50.422;14.912;2023-11-19T07:26:31;98515.94;;;2.86;100.00
66627;BME280;53498;50.422;14.912;2023-11-19T07:28:57;98507.44;;;2.90;100.00
66627;BME280;53498;50.422;14.912;2023-11-19T07:31:23;98523.50;;;2.80;100.00
66627;BME280;53498;50.422;14.912;2023-11-19T07:33:49;98523.72;;;2.89;100.00
66627;BME280;53498;50.422;14.912;2023-11-19T07:36:14;98529.56;;;2.83;100.00
66627;BME280;53498;50.422;14.912;2023-11-19T07:38:40;98534.50;;;2.74;100.00
66627;BME280;53498;50.422;14.912;2023-11-19T07:41:06;98534.06;;;2.93;100.00
66627;BME280;53498;50.422;14.912;2023-11-19T07:43:32;98527.94;;;2.87;100.00
66627;BME280;53498;50.422;14.912;2023-11-19T07:45:59;98526.88;;;2.77;100.00
66627;BME280;53498;50.422;14.912;2023-11-19T07:48:25;98525.09;;;2.74;100.00
66627;BME280;53498;50.422;14.912;2023-11-19T07:50:52;98527.66;;;2.73;100.00
66627;BME280;53498;50.422;14.912;2023-11-19T07:53:18;98529.72;;;2.89;100.00
66627;BME280;53498;50.422;14.912;2023-11-19T07:55:43;98530.63;;;2.93;100.00
66627;BME280;53498;50.422;14.912;2023-11-19T07:58:10;98531.44;;;2.90;100.00
66627;BME280;53498;50.422;14.912;2023-11-19T08:00:36;98530.69;;;2.96;100.00
66627;BME280;53498;50.422;14.912;2023-11-19T08:03:03;98518.00;;;3.04;100.00
66627;BME280;53498;50.422;14.912;2023-11-19T08:05:28;98515.41;;;3.02;100.00
66627;BME280;53498;50.422;14.912;2023-11-19T08:07:54;98510.88;;;2.90;100.00
66627;BME280;53498;50.422;14.912;2023-11-19T08:10:20;98499.66;;;2.85;100.00
66627;BME280;53498;50.422;14.912;2023-11-19T08:12:45;98504.72;;;2.82;100.00
66627;BME280;53498;50.422;14.912;2023-11-19T08:15:11;98498.03;;;2.89;100.00
66627;BME280;53498;50.422;14.912;2023-11-19T08:17:37;98492.84;;;2.87;100.00
66627;BME280;53498;50.422;14.912;2023-11-19T08:20:03;98491.25;;;2.94;100.00
66627;BME280;53498;50.422;14.912;2023-11-19T08:22:30;98490.34;;;2.90;100.00
66627;BME280;53498;50.422;14.912;2023-11-19T08:24:56;98484.53;;;2.99;100.00
66627;BME280;53498;50.422;14.912;2023-11-19T08:27:22;98488.06;;;3.04;100.00
66627;BME280;53498;50.422;14.912;2023-11-19T08:29:54;98488.03;;;3.03;100.00
66627;BME280;53498;50.422;14.912;2023-11-19T08:32:23;98486.19;;;2.97;100.00
66627;BME280;53498;50.422;14.912;2023-11-19T08:34:49;98487.22;;;3.07;100.00
66627;BME280;53498;50.422;14.912;2023-11-19T08:37:14;98488.94;;;3.05;100.00
66627;BME280;53498;50.422;14.912;2023-11-19T08:39:40;98495.78;;;3.06;100.00
66627;BME280;53498;50.422;14.912;2023-11-19T08:42:07;98489.81;;;3.07;100.00
66627;BME280;53498;50.422;14.912;2023-11-19T08:44:33;98471.88;;;3.08;100.00
66627;BME280;53498;50.422;14.912;2023-11-19T08:46:58;98484.09;;;3.20;100.00
66627;BME280;53498;50.422;14.912;2023-11-19T08:49:24;98487.59;;;3.25;100.00
66627;BME280;53498;50.422;14.912;2023-11-19T08:51:49;98472.13;;;3.22;100.00
66627;BME280;53498;50.422;14.912;2023-11-19T08:54:15;98477.25;;;3.22;100.00
66627;BME280;53498;50.422;14.912;2023-11-19T08:56:40;98472.91;;;3.18;100.00
66627;BME280;53498;50.422;14.912;2023-11-19T08:59:06;98466.88;;;3.16;100.00
66627;BME280;53498;50.422;14.912;2023-11-19T09:01:32;98478.28;;;3.30;100.00
66627;BME280;53498;50.422;14.912;2023-11-19T09:03:57;98483.50;;;3.35;100.00
66627;BME280;53498;50.422;14.912;2023-11-19T09:06:23;98476.63;;;3.32;100.00
66627;BME280;53498;50.422;14.912;2023-11-19T09:08:48;98469.44;;;3.16;100.00
66627;BME280;53498;50.422;14.912;2023-11-19T09:11:14;98473.75;;;3.17;100.00
66627;BME280;53498;50.422;14.912;2023-11-19T09:13:40;98467.28;;;3.37;100.00
66627;BME280;53498;50.422;14.912;2023-11-19T09:16:05;98469.91;;;3.39;100.00
66627;BME280;53498;50.422;14.912;2023-11-19T09:18:31;98468.19;;;3.39;100.00
66627;BME280;53498;50.422;14.912;2023-11-19T09:20:58;98460.34;;;3.33;100.00
66627;BME280;53498;50.422;14.912;2023-11-19T09:23:24;98460.47;;;3.39;100.00
66627;BME280;53498;50.422;14.912;2023-11-19T09:25:54;98463.88;;;3.38;100.00
66627;BME280;53498;50.422;14.912;2023-11-19T09:28:20;98452.84;;;3.44;100.00
66627;BME280;53498;50.422;14.912;2023-11-19T09:30:45;98451.00;;;3.37;100.00
66627;BME280;53498;50.422;14.912;2023-11-19T09:33:11;98432.94;;;3.35;100.00
66627;BME280;53498;50.422;14.912;2023-11-19T09:35:36;98435.69;;;3.44;100.00
66627;BME280;53498;50.422;14.912;2023-11-19T09:38:02;98430.94;;;3.64;100.00
66627;BME280;53498;50.422;14.912;2023-11-19T09:40:30;98438.69;;;3.69;100.00
66627;BME280;53498;50.422;14.912;2023-11-19T09:42:57;98431.91;;;3.72;100.00
66627;BME280;53498;50.422;14.912;2023-11-19T09:45:27;98440.16;;;4.05;100.00
66627;BME280;53498;50.422;14.912;2023-11-19T09:47:55;98432.25;;;3.92;100.00
66627;BME280;53498;50.422;14.912;2023-11-19T09:50:22;98417.88;;;4.07;100.00
66627;BME280;53498;50.422;14.912;2023-11-19T09:52:48;98429.03;;;4.06;100.00
66627;BME280;53498;50.422;14.912;2023-11-19T09:55:14;98426.44;;;4.07;100.00
66627;BME280;53498;50.422;14.912;2023-11-19T09:57:41;98415.19;;;4.01;100.00
66627;BME280;53498;50.422;14.912;2023-11-19T10:00:10;98409.09;;;3.92;100.00
66627;BME280;53498;50.422;14.912;2023-11-19T10:02:37;98410.16;;;4.07;100.00
66627;BME280;53498;50.422;14.912;2023-11-19T10:05:06;98409.03;;;3.89;100.00
66627;BME280;53498;50.422;14.912;2023-11-19T10:07:33;98411.47;;;4.38;100.00
66627;BME280;53498;50.422;14.912;2023-11-19T10:10:00;98414.47;;;4.09;100.00
66627;BME280;53498;50.422;14.912;2023-11-19T10:12:27;98422.28;;;4.14;100.00
66627;BME280;53498;50.422;14.912;2023-11-19T10:14:56;98428.97;;;4.03;100.00
66627;BME280;53498;50.422;14.912;2023-11-19T10:17:27;98423.69;;;3.93;100.00
66627;BME280;53498;50.422;14.912;2023-11-19T10:19:54;98426.78;;;4.29;100.00
66627;BME280;53498;50.422;14.912;2023-11-19T10:22:22;98424.97;;;4.22;100.00
66627;BME280;53498;50.422;14.912;2023-11-19T10:24:48;98424.69;;;4.02;100.00
66627;BME280;53498;50.422;14.912;2023-11-19T10:27:13;98417.88;;;4.05;100.00
66627;BME280;53498;50.422;14.912;2023-11-19T10:29:40;98419.81;;;4.22;100.00
66627;BME280;53498;50.422;14.912;2023-11-19T10:32:05;98422.06;;;3.99;100.00
66627;BME280;53498;50.422;14.912;2023-11-19T10:34:31;98420.16;;;3.87;100.00
66627;BME280;53498;50.422;14.912;2023-11-19T10:36:56;98410.97;;;4.03;100.00
66627;BME280;53498;50.422;14.912;2023-11-19T10:39:22;98416.09;;;4.03;100.00
66627;BME280;53498;50.422;14.912;2023-11-19T10:41:49;98427.25;;;4.03;100.00
66627;BME280;53498;50.422;14.912;2023-11-19T10:44:36;98416.03;;;3.98;100.00
66627;BME280;53498;50.422;14.912;2023-11-19T10:47:05;98410.09;;;4.04;100.00
66627;BME280;53498;50.422;14.912;2023-11-19T10:49:31;98412.59;;;3.98;100.00
66627;BME280;53498;50.422;14.912;2023-11-19T10:51:57;98396.84;;;3.78;100.00
66627;BME280;53498;50.422;14.912;2023-11-19T10:54:24;98394.31;;;3.79;100.00
66627;BME280;53498;50.422;14.912;2023-11-19T10:56:55;98394.16;;;3.70;100.00
66627;BME280;53498;50.422;14.912;2023-11-19T10:59:25;98400.47;;;3.89;100.00
66627;BME280;53498;50.422;14.912;2023-11-19T11:01:53;98393.34;;;3.74;100.00
66627;BME280;53498;50.422;14.912;2023-11-19T11:04:23;98401.94;;;3.73;100.00
66627;BME280;53498;50.422;14.912;2023-11-19T11:06:51;98389.16;;;3.79;100.00
66627;BME280;53498;50.422;14.912;2023-11-19T11:09:19;98388.50;;;3.92;100.00
66627;BME280;53498;50.422;14.912;2023-11-19T11:11:47;98389.47;;;4.01;100.00
66627;BME280;53498;50.422;14.912;2023-11-19T11:14:16;98390.94;;;3.85;100.00
66627;BME280;53498;50.422;14.912;2023-11-19T11:16:43;98394.41;;;3.88;100.00
66627;BME280;53498;50.422;14.912;2023-11-19T11:19:10;98394.47;;;3.91;100.00
66627;BME280;53498;50.422;14.912;2023-11-19T11:21:40;98392.72;;;4.47;100.00
66627;BME280;53498;50.422;14.912;2023-11-19T11:34:39;98358.13;;;4.29;100.00
66627;BME280;53498;50.422;14.912;2023-11-19T11:37:55;98354.66;;;4.24;100.00
66627;BME280;53498;50.422;14.912;2023-11-19T11:40:24;98347.66;;;4.15;100.00
66627;BME280;53498;50.422;14.912;2023-11-19T11:42:52;98362.91;;;4.02;100.00
66627;BME280;53498;50.422;14.912;2023-11-19T11:45:18;98365.56;;;4.08;100.00
66627;BME280;53498;50.422;14.912;2023-11-19T11:50:20;98372.75;;;4.30;100.00
66627;BME280;53498;50.422;14.912;2023-11-19T11:58:19;98372.97;;;3.86;100.00
66627;BME280;53498;50.422;14.912;2023-11-19T12:00:47;98373.03;;;3.91;100.00
66627;BME280;53498;50.422;14.912;2023-11-19T12:03:13;98367.25;;;4.06;100.00
66627;BME280;53498;50.422;14.912;2023-11-19T12:05:45;98368.19;;;4.11;100.00
66627;BME280;53498;50.422;14.912;2023-11-19T12:08:12;98361.38;;;4.14;100.00
66627;BME280;53498;50.422;14.912;2023-11-19T12:10:47;98363.88;;;4.10;100.00
66627;BME280;53498;50.422;14.912;2023-11-19T12:13:13;98364.69;;;4.04;100.00
66627;BME280;53498;50.422;14.912;2023-11-19T12:18:23;98372.41;;;4.07;100.00
66627;BME280;53498;50.422;14.912;2023-11-19T12:20:50;98368.97;;;4.07;100.00
66627;BME280;53498;50.422;14.912;2023-11-19T12:23:15;98362.88;;;3.99;100.00
66627;BME280;53498;50.422;14.912;2023-11-19T12:25:41;98342.25;;;3.97;100.00
66627;BME280;53498;50.422;14.912;2023-11-19T12:28:12;98345.84;;;4.08;100.00
66627;BME280;53498;50.422;14.912;2023-11-19T12:30:38;98332.81;;;3.98;100.00
66627;BME280;53498;50.422;14.912;2023-11-19T12:33:11;98331.22;;;4.06;100.00
66627;BME280;53498;50.422;14.912;2023-11-19T12:35:44;98338.09;;;4.07;100.00
66627;BME280;53498;50.422;14.912;2023-11-19T12:38:20;98333.78;;;4.06;100.00
66627;BME280;53498;50.422;14.912;2023-11-19T12:40:47;98324.22;;;3.96;100.00
66627;BME280;53498;50.422;14.912;2023-11-19T12:43:22;98325.34;;;4.16;100.00
66627;BME280;53498;50.422;14.912;2023-11-19T12:45:48;98315.91;;;4.16;100.00
66627;BME280;53498;50.422;14.912;2023-11-19T12:48:13;98326.28;;;4.21;100.00
66627;BME280;53498;50.422;14.912;2023-11-19T12:50:52;98322.78;;;4.16;100.00
66627;BME280;53498;50.422;14.912;2023-11-19T12:53:19;98318.72;;;4.33;100.00
66627;BME280;53498;50.422;14.912;2023-11-19T12:55:45;98309.16;;;4.25;100.00
66627;BME280;53498;50.422;14.912;2023-11-19T12:58:10;98306.56;;;4.22;100.00
66627;BME280;53498;50.422;14.912;2023-11-19T13:00:36;98293.59;;;4.15;100.00
66627;BME280;53498;50.422;14.912;2023-11-19T13:03:02;98305.69;;;4.21;100.00
66627;BME280;53498;50.422;14.912;2023-11-19T13:05:33;98293.63;;;4.17;100.00
66627;BME280;53498;50.422;14.912;2023-11-19T13:08:05;98274.75;;;4.18;100.00
66627;BME280;53498;50.422;14.912;2023-11-19T13:10:51;98273.00;;;4.14;100.00